Cumberland, WI

5:46 PM CST on December 15, 2019 (GMT -0600)
Cumberland Municipal

Weather History for KUBE - October, 2019

Change the Weather History Date:

Saturday, October 5, 2019

  Actual Average (KRPD) Record (KRPD)
Temperature  
Mean Temperature 46 °F -  
Max Temperature 50 °F 59 °F 82 °F (2011)
Min Temperature 41 °F 38 °F 26 °F (2004)
Degree Days  
Heating Degree Days 20    
Moisture  
Dew Point 43 °F    
Average Humidity 92    
Maximum Humidity 100    
Minimum Humidity 81    
Precipitation  
Precipitation 0.53 in - - ()
Sea Level Pressure  
Sea Level Pressure 29.89 in    
Wind  
Wind Speed 11 mph (SSE)    
Max Wind Speed 20 mph    
Max Gust Speed 29 mph    
Visibility 8 miles    
Events Rain    
Averages and records for this station are not official NWS values.
T = Trace of Precipitation, MM = Missing Value Source: NWS Daily Summary

Daily Weather History Graph

Daily Weather History Graph

Search for Another Location

Airport or City:

Astronomy

Oct. 05, 2019 Rise Set
Actual Time 7:10 AM CDT 6:40 PM CDT
Civil Twilight 6:41 AM CDT 7:10 PM CDT
Nautical Twilight 6:07 AM CDT 7:44 PM CDT
Astronomical Twilight 5:32 AM CDT 8:19 PM CDT
Moon 2:53 PM CDT (10/5) 11:48 PM CDT (10/5)
Length of Visible Light 12h 29m
Length of Day
11h 30m
Waxing Crescent, 50% of the Moon is Illuminated
Oct 5
Waxing Crescent
Oct 13
Full
Oct 21
Last Quarter
Oct 27
New
Nov 4
First Quarter

Hourly Weather History & Observations

Time (CDT) Temp. Windchill Dew Point Humidity Pressure Visibility Wind Dir Wind Speed Gust Speed Precip Events Conditions
12:15 AM 41.0 °F 35.2 °F 35.6 °F 81% 30.23 in 10.0 mi ESE 9.2 mph - N/A   Scattered Clouds
12:35 AM 41.0 °F 35.8 °F 35.6 °F 81% 30.22 in 10.0 mi ESE 8.1 mph - N/A   Clear
12:55 AM 41.0 °F 35.8 °F 35.6 °F 81% 30.21 in 10.0 mi ESE 8.1 mph - N/A   Scattered Clouds
1:15 AM 41.0 °F 35.8 °F 35.6 °F 81% 30.20 in 10.0 mi ESE 8.1 mph - N/A   Scattered Clouds
1:35 AM 41.0 °F 39.0 °F 37.4 °F 87% 30.20 in 10.0 mi ESE 3.5 mph - N/A   Mostly Cloudy
1:55 AM 41.0 °F 35.2 °F 37.4 °F 87% 30.21 in 10.0 mi SE 9.2 mph - N/A   Overcast
2:15 AM 42.8 °F 37.5 °F 37.4 °F 81% 30.21 in 10.0 mi SE 9.2 mph - N/A   Overcast
2:35 AM 42.8 °F 37.0 °F 39.2 °F 87% 30.20 in 10.0 mi SE 10.4 mph - N/A   Overcast
2:55 AM 42.8 °F 38.6 °F 39.2 °F 87% 30.18 in 10.0 mi SE 6.9 mph - N/A   Overcast
3:15 AM 42.8 °F 38.0 °F 39.2 °F 87% 30.16 in 10.0 mi ESE 8.1 mph - N/A   Overcast
3:35 AM 42.8 °F 38.0 °F 39.2 °F 87% 30.15 in 10.0 mi SE 8.1 mph - N/A   Overcast
3:55 AM 42.8 °F 37.5 °F 41.0 °F 93% 30.13 in 10.0 mi SE 9.2 mph 16.1 mph N/A   Overcast
4:15 AM 42.8 °F 36.6 °F 41.0 °F 93% 30.11 in 10.0 mi SE 11.5 mph 16.1 mph N/A   Overcast
4:35 AM 42.8 °F 35.8 °F 41.0 °F 93% 30.10 in 10.0 mi SE 13.8 mph 19.6 mph N/A   Light Drizzle
4:55 AM 42.8 °F 35.8 °F 41.0 °F 93% 30.08 in 10.0 mi ESE 13.8 mph 18.4 mph N/A   Overcast
5:15 AM 42.8 °F 35.8 °F 39.2 °F 87% 30.07 in 10.0 mi SE 13.8 mph 19.6 mph N/A   Overcast
5:35 AM 42.8 °F 35.8 °F 39.2 °F 87% 30.07 in 10.0 mi SE 13.8 mph 18.4 mph N/A   Light Drizzle
5:55 AM 42.8 °F 36.6 °F 41.0 °F 93% 30.07 in 10.0 mi SE 11.5 mph 20.7 mph N/A Rain Rain
6:15 AM 42.8 °F 36.6 °F 41.0 °F 93% 30.06 in 10.0 mi SE 11.5 mph 17.3 mph N/A Rain Rain
6:35 AM 42.8 °F 37.0 °F 41.0 °F 93% 30.06 in 10.0 mi SE 10.4 mph - 0.02 in Rain Light Rain
6:55 AM 42.8 °F 39.3 °F 41.0 °F 93% 30.06 in 5.0 mi SE 5.8 mph - 0.07 in Rain Rain
7:15 AM 42.8 °F 38.6 °F 41.0 °F 93% 30.05 in 2.5 mi ESE 6.9 mph - 0.08 in Rain Light Rain
7:35 AM 42.8 °F 40.1 °F 41.0 °F 93% 30.03 in 1.5 mi ESE 4.6 mph - 0.18 in   Overcast
7:55 AM 42.8 °F 36.6 °F 41.0 °F 93% 30.02 in 3.0 mi ESE 11.5 mph - 0.25 in Rain Rain
8:15 AM 42.8 °F 36.6 °F 41.0 °F 93% 30.02 in 5.0 mi SE 11.5 mph 18.4 mph 0.04 in Rain Rain
8:35 AM 42.8 °F 36.2 °F 41.0 °F 93% 30.01 in 4.0 mi ESE 12.7 mph - 0.10 in Rain Rain
8:55 AM 42.8 °F 35.1 °F 41.0 °F 93% 29.97 in 5.0 mi ESE 16.1 mph 23.0 mph 0.16 in Rain Rain
9:15 AM 42.8 °F 36.2 °F 42.8 °F 100% 29.96 in 10.0 mi ESE 12.7 mph 23.0 mph 0.01 in Rain Light Rain
9:35 AM 42.8 °F 35.4 °F 42.8 °F 100% 29.93 in 7.0 mi SE 15.0 mph 23.0 mph 0.03 in Rain Light Rain
9:55 AM 42.8 °F 35.4 °F 42.8 °F 100% 29.88 in 10.0 mi ESE 15.0 mph 28.8 mph 0.03 in Rain Light Rain
10:15 AM 42.8 °F 35.4 °F 42.8 °F 100% 29.87 in 10.0 mi ESE 15.0 mph 19.6 mph N/A Rain Light Rain
10:35 AM 42.8 °F 37.0 °F 42.8 °F 100% 29.89 in 10.0 mi ESE 10.4 mph 19.6 mph N/A Rain Light Rain
10:55 AM 44.6 °F 38.4 °F 42.8 °F 93% 29.87 in 10.0 mi SSE 12.7 mph 16.1 mph N/A   Overcast
11:15 AM 44.6 °F 39.2 °F 44.6 °F 100% 29.86 in 10.0 mi SE 10.4 mph 20.7 mph N/A   Overcast
11:35 AM 44.6 °F 38.4 °F 44.6 °F 100% 29.85 in 10.0 mi SE 12.7 mph 19.6 mph N/A   Light Drizzle
11:55 AM 44.6 °F 38.1 °F 44.6 °F 100% 29.83 in 10.0 mi SE 13.8 mph 18.4 mph N/A   Overcast
12:15 PM 44.6 °F 39.2 °F 44.6 °F 100% 29.81 in 10.0 mi SSE 10.4 mph - N/A   Overcast
12:35 PM 46.4 °F 39.8 °F 44.6 °F 93% 29.80 in 10.0 mi SSE 16.1 mph 23.0 mph N/A   Overcast
12:55 PM 46.4 °F 39.5 °F 44.6 °F 93% 29.78 in 10.0 mi SSE 17.3 mph 25.3 mph N/A   Overcast
1:15 PM 46.4 °F 39.5 °F 44.6 °F 93% 29.77 in 3.0 mi SSE 17.3 mph 24.2 mph N/A Rain Light Rain
1:35 PM 46.4 °F 39.5 °F 44.6 °F 93% 29.76 in 4.0 mi SSE 17.3 mph 23.0 mph N/A   Light Drizzle
1:55 PM 46.4 °F 39.2 °F 44.6 °F 93% 29.74 in 5.0 mi SSE 18.4 mph 26.5 mph N/A   Overcast
2:15 PM 46.4 °F 39.2 °F 46.4 °F 100% 29.73 in 2.5 mi SSE 18.4 mph 25.3 mph N/A Rain Light Rain
2:35 PM 46.4 °F 40.1 °F 46.4 °F 100% 29.72 in 2.0 mi SSE 15.0 mph 26.5 mph N/A Rain Rain
2:55 PM 46.4 °F 39.8 °F 46.4 °F 100% 29.71 in 2.5 mi SSE 16.1 mph 23.0 mph N/A Rain Rain
3:35 PM 48.2 °F - 46.4 °F 93% 29.70 in 2.5 mi SSE 13.8 mph 20.7 mph 0.01 in Rain Light Rain
3:55 PM 48.2 °F - 46.4 °F 93% 29.69 in 3.0 mi SSE 13.8 mph 23.0 mph 0.01 in   Overcast
4:15 PM 48.2 °F - 46.4 °F 93% 29.68 in 5.0 mi South 13.8 mph 23.0 mph N/A   Overcast
4:35 PM 48.2 °F - 46.4 °F 93% 29.68 in 10.0 mi South 15.0 mph - N/A   Overcast
4:55 PM 48.2 °F - 46.4 °F 93% 29.67 in 2.5 mi South 12.7 mph 20.7 mph N/A Rain Light Rain
5:15 PM 48.2 °F - 48.2 °F 100% 29.67 in 3.0 mi South 16.1 mph 19.6 mph N/A   Light Drizzle
5:35 PM 50.0 °F - 48.2 °F 94% 29.68 in 2.5 mi South 12.7 mph 17.3 mph N/A   Drizzle
5:55 PM 50.0 °F - 48.2 °F 94% 29.67 in 10.0 mi South 12.7 mph - N/A   Overcast
6:15 PM 50.0 °F - 48.2 °F 94% 29.67 in 10.0 mi South 11.5 mph 17.3 mph N/A   Overcast
6:35 PM 50.0 °F - 50.0 °F 100% 29.67 in 10.0 mi South 11.5 mph - N/A Rain Light Rain
6:55 PM 50.0 °F - 50.0 °F 100% 29.68 in 10.0 mi SW 16.1 mph 24.2 mph 0.01 in Rain Light Rain
7:15 PM 50.0 °F - 50.0 °F 100% 29.68 in 10.0 mi WSW 13.8 mph 20.7 mph N/A   Overcast
7:35 PM 50.0 °F - 48.2 °F 94% 29.68 in 10.0 mi SW 12.7 mph 18.4 mph N/A   Overcast
7:55 PM 50.0 °F - 46.4 °F 87% 29.68 in 10.0 mi SW 12.7 mph 19.6 mph N/A   Overcast
8:15 PM 50.0 °F - 46.4 °F 87% 29.68 in 10.0 mi SW 15.0 mph 21.9 mph N/A   Overcast
8:35 PM 50.0 °F - 46.4 °F 87% 29.68 in 4.0 mi SW 13.8 mph 19.6 mph N/A   Drizzle
8:55 PM 50.0 °F - 46.4 °F 87% 29.69 in 5.0 mi WSW 12.7 mph 26.5 mph N/A   Light Drizzle
9:15 PM 50.0 °F - 46.4 °F 87% 29.70 in 10.0 mi WSW 13.8 mph 23.0 mph N/A   Overcast
9:35 PM 48.2 °F - 44.6 °F 87% 29.71 in 10.0 mi WSW 15.0 mph 23.0 mph N/A   Overcast
9:55 PM 46.4 °F 39.8 °F 44.6 °F 93% 29.71 in 5.0 mi West 16.1 mph 26.5 mph N/A Rain Rain
10:15 PM 46.4 °F 40.7 °F 44.6 °F 93% 29.72 in 7.0 mi WSW 12.7 mph 21.9 mph N/A   Overcast
10:35 PM 46.4 °F 39.0 °F 42.8 °F 87% 29.74 in 10.0 mi WSW 19.6 mph 25.3 mph N/A   Overcast
10:55 PM 46.4 °F 39.8 °F 42.8 °F 87% 29.74 in 10.0 mi West 16.1 mph 21.9 mph N/A   Overcast
11:15 PM 46.4 °F 40.4 °F 41.0 °F 81% 29.75 in 10.0 mi WSW 13.8 mph 20.7 mph N/A   Overcast
11:35 PM 46.4 °F 40.4 °F 41.0 °F 81% 29.76 in 10.0 mi West 13.8 mph 19.6 mph N/A   Overcast
11:55 PM 46.4 °F 41.1 °F 41.0 °F 81% 29.77 in 10.0 mi WSW 11.5 mph 18.4 mph N/A   Overcast